sensor_id;sensor_type;location;lat;lon;timestamp;P1;durP1;ratioP1;P2;durP2;ratioP2
15814;SDS011;8008;50.024;8.172;2022-11-09T04:01:31;8.32;;;4.78;;
15814;SDS011;8008;50.024;8.172;2022-11-09T04:03:59;6.38;;;4.28;;
15814;SDS011;8008;50.024;8.172;2022-11-09T04:06:27;8.55;;;4.72;;
15814;SDS011;8008;50.024;8.172;2022-11-09T04:08:55;6.82;;;4.78;;
15814;SDS011;8008;50.024;8.172;2022-11-09T04:11:23;8.15;;;4.50;;
15814;SDS011;8008;50.024;8.172;2022-11-09T04:13:51;7.47;;;4.53;;
15814;SDS011;8008;50.024;8.172;2022-11-09T04:16:19;7.25;;;4.50;;
15814;SDS011;8008;50.024;8.172;2022-11-09T04:18:48;8.75;;;4.60;;
15814;SDS011;8008;50.024;8.172;2022-11-09T04:21:16;8.75;;;4.60;;
15814;SDS011;8008;50.024;8.172;2022-11-09T04:23:49;7.43;;;4.80;;
15814;SDS011;8008;50.024;8.172;2022-11-09T04:26:17;6.20;;;4.53;;
15814;SDS011;8008;50.024;8.172;2022-11-09T04:28:45;7.90;;;4.68;;
15814;SDS011;8008;50.024;8.172;2022-11-09T04:31:12;7.65;;;4.75;;
15814;SDS011;8008;50.024;8.172;2022-11-09T04:33:40;7.15;;;4.28;;
15814;SDS011;8008;50.024;8.172;2022-11-09T04:36:10;8.02;;;4.30;;
15814;SDS011;8008;50.024;8.172;2022-11-09T04:38:37;7.45;;;4.65;;
15814;SDS011;8008;50.024;8.172;2022-11-09T04:41:05;6.78;;;4.93;;
15814;SDS011;8008;50.024;8.172;2022-11-09T04:43:34;12.23;;;4.75;;
15814;SDS011;8008;50.024;8.172;2022-11-09T04:46:02;8.15;;;4.63;;
15814;SDS011;8008;50.024;8.172;2022-11-09T04:48:30;5.55;;;4.80;;
15814;SDS011;8008;50.024;8.172;2022-11-09T04:50:59;8.45;;;4.78;;
15814;SDS011;8008;50.024;8.172;2022-11-09T04:53:28;6.30;;;4.20;;
15814;SDS011;8008;50.024;8.172;2022-11-09T04:55:56;7.53;;;5.30;;
15814;SDS011;8008;50.024;8.172;2022-11-09T04:58:25;8.02;;;4.93;;
15814;SDS011;8008;50.024;8.172;2022-11-09T05:00:53;4.60;;;4.00;;
15814;SDS011;8008;50.024;8.172;2022-11-09T05:03:21;5.43;;;4.40;;
15814;SDS011;8008;50.024;8.172;2022-11-09T05:05:49;5.25;;;4.10;;
15814;SDS011;8008;50.024;8.172;2022-11-09T05:08:17;4.60;;;3.92;;
15814;SDS011;8008;50.024;8.172;2022-11-09T05:10:46;4.43;;;3.90;;
15814;SDS011;8008;50.024;8.172;2022-11-09T05:13:14;5.20;;;4.00;;
15814;SDS011;8008;50.024;8.172;2022-11-09T05:15:42;4.72;;;4.20;;
15814;SDS011;8008;50.024;8.172;2022-11-09T05:18:10;5.97;;;4.60;;
15814;SDS011;8008;50.024;8.172;2022-11-09T05:20:38;7.60;;;6.32;;
15814;SDS011;8008;50.024;8.172;2022-11-09T05:23:06;7.10;;;5.95;;
15814;SDS011;8008;50.024;8.172;2022-11-09T05:25:52;7.05;;;6.00;;
15814;SDS011;8008;50.024;8.172;2022-11-09T05:28:20;12.98;;;8.45;;
15814;SDS011;8008;50.024;8.172;2022-11-09T05:30:48;13.05;;;9.13;;
15814;SDS011;8008;50.024;8.172;2022-11-09T05:33:16;10.80;;;7.72;;
15814;SDS011;8008;50.024;8.172;2022-11-09T05:35:45;6.50;;;5.65;;
15814;SDS011;8008;50.024;8.172;2022-11-09T05:38:12;9.05;;;6.15;;
15814;SDS011;8008;50.024;8.172;2022-11-09T05:40:40;8.07;;;6.20;;
15814;SDS011;8008;50.024;8.172;2022-11-09T05:43:09;6.70;;;6.00;;
15814;SDS011;8008;50.024;8.172;2022-11-09T05:45:37;8.07;;;6.68;;
15814;SDS011;8008;50.024;8.172;2022-11-09T05:48:09;8.95;;;7.10;;
15814;SDS011;8008;50.024;8.172;2022-11-09T05:50:37;11.38;;;7.40;;
15814;SDS011;8008;50.024;8.172;2022-11-09T05:53:24;10.18;;;6.75;;
15814;SDS011;8008;50.024;8.172;2022-11-09T05:55:52;6.88;;;6.18;;
15814;SDS011;8008;50.024;8.172;2022-11-09T05:58:21;9.77;;;6.55;;
15814;SDS011;8008;50.024;8.172;2022-11-09T06:00:49;9.93;;;7.53;;
15814;SDS011;8008;50.024;8.172;2022-11-09T06:03:17;9.45;;;7.60;;
15814;SDS011;8008;50.024;8.172;2022-11-09T06:05:45;11.10;;;8.80;;
15814;SDS011;8008;50.024;8.172;2022-11-09T06:08:13;11.23;;;8.68;;
15814;SDS011;8008;50.024;8.172;2022-11-09T06:10:41;11.00;;;8.60;;
15814;SDS011;8008;50.024;8.172;2022-11-09T06:13:10;12.02;;;9.00;;
15814;SDS011;8008;50.024;8.172;2022-11-09T06:15:39;9.40;;;7.72;;
15814;SDS011;8008;50.024;8.172;2022-11-09T06:18:07;10.57;;;7.85;;
15814;SDS011;8008;50.024;8.172;2022-11-09T06:20:35;11.40;;;7.78;;
15814;SDS011;8008;50.024;8.172;2022-11-09T06:23:02;11.00;;;7.80;;
15814;SDS011;8008;50.024;8.172;2022-11-09T06:25:30;8.23;;;6.85;;
15814;SDS011;8008;50.024;8.172;2022-11-09T06:27:59;8.10;;;7.05;;
15814;SDS011;8008;50.024;8.172;2022-11-09T06:30:27;8.60;;;7.22;;
15814;SDS011;8008;50.024;8.172;2022-11-09T06:32:59;9.82;;;7.28;;
15814;SDS011;8008;50.024;8.172;2022-11-09T06:35:28;8.10;;;7.20;;
15814;SDS011;8008;50.024;8.172;2022-11-09T06:37:57;9.82;;;7.45;;
15814;SDS011;8008;50.024;8.172;2022-11-09T06:40:25;7.55;;;6.75;;
15814;SDS011;8008;50.024;8.172;2022-11-09T06:42:55;9.27;;;7.18;;
15814;SDS011;8008;50.024;8.172;2022-11-09T06:45:24;9.00;;;7.88;;
15814;SDS011;8008;50.024;8.172;2022-11-09T06:47:53;9.90;;;8.25;;
15814;SDS011;8008;50.024;8.172;2022-11-09T06:50:23;8.70;;;7.78;;
15814;SDS011;8008;50.024;8.172;2022-11-09T06:52:54;9.23;;;7.72;;
15814;SDS011;8008;50.024;8.172;2022-11-09T06:55:22;9.95;;;7.57;;
15814;SDS011;8008;50.024;8.172;2022-11-09T06:57:50;9.95;;;7.68;;
15814;SDS011;8008;50.024;8.172;2022-11-09T07:00:19;8.82;;;7.38;;
15814;SDS011;8008;50.024;8.172;2022-11-09T07:02:47;7.90;;;7.07;;
15814;SDS011;8008;50.024;8.172;2022-11-09T07:05:15;9.57;;;7.60;;
15814;SDS011;8008;50.024;8.172;2022-11-09T07:07:45;9.25;;;7.00;;
15814;SDS011;8008;50.024;8.172;2022-11-09T07:10:13;8.00;;;6.47;;
15814;SDS011;8008;50.024;8.172;2022-11-09T07:12:41;8.35;;;6.95;;
15814;SDS011;8008;50.024;8.172;2022-11-09T07:15:10;8.25;;;6.53;;
15814;SDS011;8008;50.024;8.172;2022-11-09T07:17:38;7.93;;;6.43;;
15814;SDS011;8008;50.024;8.172;2022-11-09T07:20:07;10.55;;;7.18;;
15814;SDS011;8008;50.024;8.172;2022-11-09T07:22:36;10.15;;;7.13;;
15814;SDS011;8008;50.024;8.172;2022-11-09T07:25:06;8.23;;;6.68;;
15814;SDS011;8008;50.024;8.172;2022-11-09T07:27:35;7.80;;;6.82;;
15814;SDS011;8008;50.024;8.172;2022-11-09T07:30:04;9.10;;;7.25;;
15814;SDS011;8008;50.024;8.172;2022-11-09T07:32:32;8.75;;;7.05;;
15814;SDS011;8008;50.024;8.172;2022-11-09T07:35:21;8.75;;;7.55;;
15814;SDS011;8008;50.024;8.172;2022-11-09T07:37:48;9.75;;;7.50;;
15814;SDS011;8008;50.024;8.172;2022-11-09T07:40:18;9.77;;;7.82;;
15814;SDS011;8008;50.024;8.172;2022-11-09T07:42:46;10.95;;;7.30;;
15814;SDS011;8008;50.024;8.172;2022-11-09T07:45:14;9.73;;;7.82;;
15814;SDS011;8008;50.024;8.172;2022-11-09T07:47:42;9.52;;;7.82;;
15814;SDS011;8008;50.024;8.172;2022-11-09T07:50:10;10.27;;;7.47;;
15814;SDS011;8008;50.024;8.172;2022-11-09T07:52:38;7.75;;;6.90;;
15814;SDS011;8008;50.024;8.172;2022-11-09T07:55:06;8.75;;;7.68;;
15814;SDS011;8008;50.024;8.172;2022-11-09T07:57:36;9.65;;;7.65;;
15814;SDS011;8008;50.024;8.172;2022-11-09T08:00:04;8.75;;;7.40;;
15814;SDS011;8008;50.024;8.172;2022-11-09T08:02:36;9.50;;;7.60;;
15814;SDS011;8008;50.024;8.172;2022-11-09T08:05:05;9.73;;;7.65;;
15814;SDS011;8008;50.024;8.172;2022-11-09T08:07:33;8.77;;;7.35;;
15814;SDS011;8008;50.024;8.172;2022-11-09T08:10:02;9.77;;;7.63;;
15814;SDS011;8008;50.024;8.172;2022-11-09T08:12:31;9.40;;;7.65;;
15814;SDS011;8008;50.024;8.172;2022-11-09T08:15:04;8.82;;;7.32;;
15814;SDS011;8008;50.024;8.172;2022-11-09T08:17:33;8.57;;;7.25;;
15814;SDS011;8008;50.024;8.172;2022-11-09T08:20:01;8.98;;;7.60;;
15814;SDS011;8008;50.024;8.172;2022-11-09T08:22:29;8.68;;;6.82;;
15814;SDS011;8008;50.024;8.172;2022-11-09T08:24:57;9.70;;;7.43;;
15814;SDS011;8008;50.024;8.172;2022-11-09T08:27:24;8.27;;;6.82;;
15814;SDS011;8008;50.024;8.172;2022-11-09T08:29:56;9.70;;;7.15;;
15814;SDS011;8008;50.024;8.172;2022-11-09T08:32:25;8.30;;;7.00;;
15814;SDS011;8008;50.024;8.172;2022-11-09T08:34:53;9.25;;;6.97;;
15814;SDS011;8008;50.024;8.172;2022-11-09T08:37:20;9.95;;;6.53;;
15814;SDS011;8008;50.024;8.172;2022-11-09T08:39:48;7.13;;;6.43;;
15814;SDS011;8008;50.024;8.172;2022-11-09T08:42:16;7.45;;;6.15;;
15814;SDS011;8008;50.024;8.172;2022-11-09T08:44:44;7.65;;;5.93;;
15814;SDS011;8008;50.024;8.172;2022-11-09T08:47:12;6.70;;;5.93;;
15814;SDS011;8008;50.024;8.172;2022-11-09T08:49:41;5.57;;;5.07;;
15814;SDS011;8008;50.024;8.172;2022-11-09T08:52:09;6.20;;;5.03;;
15814;SDS011;8008;50.024;8.172;2022-11-09T08:54:37;6.07;;;4.85;;
15814;SDS011;8008;50.024;8.172;2022-11-09T08:57:05;6.95;;;4.78;;
15814;SDS011;8008;50.024;8.172;2022-11-09T08:59:33;4.28;;;3.80;;
15814;SDS011;8008;50.024;8.172;2022-11-09T09:02:01;5.03;;;3.85;;
15814;SDS011;8008;50.024;8.172;2022-11-09T09:04:29;3.28;;;2.97;;
15814;SDS011;8008;50.024;8.172;2022-11-09T09:06:58;3.38;;;3.08;;
15814;SDS011;8008;50.024;8.172;2022-11-09T09:09:26;3.83;;;3.33;;
15814;SDS011;8008;50.024;8.172;2022-11-09T09:11:54;4.43;;;3.10;;
15814;SDS011;8008;50.024;8.172;2022-11-09T09:14:22;3.63;;;3.30;;
15814;SDS011;8008;50.024;8.172;2022-11-09T09:16:51;4.88;;;3.10;;
15814;SDS011;8008;50.024;8.172;2022-11-09T09:19:19;3.10;;;2.78;;
15814;SDS011;8008;50.024;8.172;2022-11-09T09:21:46;4.93;;;2.50;;
15814;SDS011;8008;50.024;8.172;2022-11-09T09:24:16;3.88;;;2.50;;
15814;SDS011;8008;50.024;8.172;2022-11-09T09:26:44;2.80;;;2.00;;
15814;SDS011;8008;50.024;8.172;2022-11-09T09:29:12;2.35;;;1.90;;
15814;SDS011;8008;50.024;8.172;2022-11-09T09:31:40;1.95;;;1.75;;
15814;SDS011;8008;50.024;8.172;2022-11-09T09:34:08;5.90;;;1.70;;
15814;SDS011;8008;50.024;8.172;2022-11-09T09:36:37;1.83;;;1.73;;
15814;SDS011;8008;50.024;8.172;2022-11-09T09:39:13;2.05;;;1.70;;
15814;SDS011;8008;50.024;8.172;2022-11-09T09:41:44;1.65;;;1.38;;
15814;SDS011;8008;50.024;8.172;2022-11-09T09:44:22;2.45;;;1.20;;
15814;SDS011;8008;50.024;8.172;2022-11-09T09:46:56;1.40;;;1.10;;
15814;SDS011;8008;50.024;8.172;2022-11-09T09:49:33;2.03;;;1.30;;
15814;SDS011;8008;50.024;8.172;2022-11-09T09:52:04;2.35;;;1.17;;
15814;SDS011;8008;50.024;8.172;2022-11-09T09:54:42;2.28;;;1.25;;
15814;SDS011;8008;50.024;8.172;2022-11-09T09:57:20;4.05;;;1.33;;
15814;SDS011;8008;50.024;8.172;2022-11-09T09:59:51;1.85;;;1.20;;
15814;SDS011;8008;50.024;8.172;2022-11-09T10:02:21;3.65;;;1.17;;
15814;SDS011;8008;50.024;8.172;2022-11-09T10:04:51;1.95;;;1.20;;
15814;SDS011;8008;50.024;8.172;2022-11-09T10:07:24;1.33;;;1.10;;
15814;SDS011;8008;50.024;8.172;2022-11-09T10:09:59;2.60;;;1.13;;
15814;SDS011;8008;50.024;8.172;2022-11-09T10:12:40;2.47;;;1.17;;
15814;SDS011;8008;50.024;8.172;2022-11-09T10:15:18;1.40;;;1.25;;
15814;SDS011;8008;50.024;8.172;2022-11-09T10:17:56;3.45;;;1.30;;
15814;SDS011;8008;50.024;8.172;2022-11-09T10:20:34;3.35;;;0.90;;
15814;SDS011;8008;50.024;8.172;2022-11-09T10:23:25;4.53;;;1.10;;
15814;SDS011;8008;50.024;8.172;2022-11-09T10:26:10;4.82;;;1.20;;
15814;SDS011;8008;50.024;8.172;2022-11-09T10:28:45;4.05;;;1.30;;
15814;SDS011;8008;50.024;8.172;2022-11-09T10:31:38;4.20;;;1.10;;
15814;SDS011;8008;50.024;8.172;2022-11-09T10:34:11;3.70;;;1.00;;
15814;SDS011;8008;50.024;8.172;2022-11-09T10:36:44;4.05;;;1.10;;
15814;SDS011;8008;50.024;8.172;2022-11-09T10:39:18;4.60;;;1.20;;
15814;SDS011;8008;50.024;8.172;2022-11-09T10:42:09;1.67;;;1.20;;
15814;SDS011;8008;50.024;8.172;2022-11-09T10:44:58;2.45;;;1.00;;
15814;SDS011;8008;50.024;8.172;2022-11-09T10:47:56;4.72;;;1.10;;
15814;SDS011;8008;50.024;8.172;2022-11-09T10:50:45;1.65;;;1.00;;
15814;SDS011;8008;50.024;8.172;2022-11-09T10:53:35;2.60;;;1.00;;
15814;SDS011;8008;50.024;8.172;2022-11-09T10:56:21;2.83;;;1.02;;
15814;SDS011;8008;50.024;8.172;2022-11-09T10:59:28;4.00;;;1.10;;
15814;SDS011;8008;50.024;8.172;2022-11-09T11:02:46;1.88;;;1.00;;
15814;SDS011;8008;50.024;8.172;2022-11-09T11:05:33;2.83;;;1.00;;
15814;SDS011;8008;50.024;8.172;2022-11-09T11:08:23;2.92;;;1.20;;
15814;SDS011;8008;50.024;8.172;2022-11-09T11:11:20;3.08;;;1.58;;
15814;SDS011;8008;50.024;8.172;2022-11-09T11:14:21;4.20;;;1.38;;
15814;SDS011;8008;50.024;8.172;2022-11-09T11:17:20;4.63;;;1.13;;
15814;SDS011;8008;50.024;8.172;2022-11-09T11:20:29;2.58;;;1.10;;
15814;SDS011;8008;50.024;8.172;2022-11-09T11:23:18;1.00;;;0.80;;
15814;SDS011;8008;50.024;8.172;2022-11-09T11:26:30;4.95;;;1.10;;
15814;SDS011;8008;50.024;8.172;2022-11-09T11:29:27;3.40;;;1.05;;
15814;SDS011;8008;50.024;8.172;2022-11-09T11:32:19;2.30;;;0.90;;
15814;SDS011;8008;50.024;8.172;2022-11-09T11:35:11;1.20;;;0.93;;
15814;SDS011;8008;50.024;8.172;2022-11-09T11:38:04;2.70;;;1.10;;
15814;SDS011;8008;50.024;8.172;2022-11-09T11:41:00;2.72;;;1.02;;
15814;SDS011;8008;50.024;8.172;2022-11-09T11:43:56;2.75;;;0.98;;
15814;SDS011;8008;50.024;8.172;2022-11-09T11:46:51;2.42;;;1.17;;
15814;SDS011;8008;50.024;8.172;2022-11-09T11:49:48;4.05;;;1.17;;
15814;SDS011;8008;50.024;8.172;2022-11-09T11:52:48;3.55;;;1.20;;
15814;SDS011;8008;50.024;8.172;2022-11-09T11:55:53;3.70;;;1.20;;
15814;SDS011;8008;50.024;8.172;2022-11-09T11:58:56;1.45;;;1.00;;
15814;SDS011;8008;50.024;8.172;2022-11-09T12:02:22;1.45;;;0.90;;
15814;SDS011;8008;50.024;8.172;2022-11-09T12:05:28;2.10;;;1.10;;
15814;SDS011;8008;50.024;8.172;2022-11-09T12:08:26;2.00;;;0.82;;
15814;SDS011;8008;50.024;8.172;2022-11-09T12:11:22;1.85;;;1.10;;
15814;SDS011;8008;50.024;8.172;2022-11-09T12:14:22;2.75;;;1.10;;
15814;SDS011;8008;50.024;8.172;2022-11-09T12:17:19;2.33;;;1.00;;
15814;SDS011;8008;50.024;8.172;2022-11-09T12:20:20;1.63;;;1.23;;
15814;SDS011;8008;50.024;8.172;2022-11-09T12:23:18;2.17;;;1.05;;
15814;SDS011;8008;50.024;8.172;2022-11-09T12:26:16;2.22;;;1.13;;
15814;SDS011;8008;50.024;8.172;2022-11-09T12:29:12;2.13;;;1.30;;
15814;SDS011;8008;50.024;8.172;2022-11-09T12:32:08;3.63;;;1.20;;
15814;SDS011;8008;50.024;8.172;2022-11-09T12:35:10;2.55;;;1.42;;
15814;SDS011;8008;50.024;8.172;2022-11-09T12:38:04;2.92;;;1.60;;
15814;SDS011;8008;50.024;8.172;2022-11-09T12:40:58;2.83;;;1.60;;
15814;SDS011;8008;50.024;8.172;2022-11-09T12:43:51;2.88;;;1.20;;
15814;SDS011;8008;50.024;8.172;2022-11-09T12:46:43;2.53;;;1.30;;
15814;SDS011;8008;50.024;8.172;2022-11-09T12:49:34;2.78;;;1.50;;
15814;SDS011;8008;50.024;8.172;2022-11-09T12:52:24;2.20;;;1.20;;
15814;SDS011;8008;50.024;8.172;2022-11-09T12:55:13;3.58;;;1.50;;
15814;SDS011;8008;50.024;8.172;2022-11-09T12:58:01;3.05;;;1.60;;
15814;SDS011;8008;50.024;8.172;2022-11-09T13:00:48;2.70;;;1.13;;
15814;SDS011;8008;50.024;8.172;2022-11-09T13:03:39;3.83;;;1.17;;
15814;SDS011;8008;50.024;8.172;2022-11-09T13:06:39;3.85;;;1.25;;
15814;SDS011;8008;50.024;8.172;2022-11-09T13:09:26;3.65;;;1.20;;
15814;SDS011;8008;50.024;8.172;2022-11-09T13:12:32;2.38;;;1.35;;
15814;SDS011;8008;50.024;8.172;2022-11-09T13:15:21;4.43;;;1.60;;
15814;SDS011;8008;50.024;8.172;2022-11-09T13:18:23;2.33;;;1.35;;
15814;SDS011;8008;50.024;8.172;2022-11-09T13:21:33;3.03;;;1.50;;
15814;SDS011;8008;50.024;8.172;2022-11-09T13:27:40;2.30;;;1.50;;
15814;SDS011;8008;50.024;8.172;2022-11-09T13:30:38;3.40;;;1.23;;
15814;SDS011;8008;50.024;8.172;2022-11-09T13:33:27;2.50;;;1.60;;
15814;SDS011;8008;50.024;8.172;2022-11-09T13:36:15;1.60;;;1.15;;
15814;SDS011;8008;50.024;8.172;2022-11-09T13:39:25;2.00;;;1.50;;
15814;SDS011;8008;50.024;8.172;2022-11-09T13:42:22;4.55;;;1.35;;
15814;SDS011;8008;50.024;8.172;2022-11-09T13:45:23;4.00;;;1.33;;
15814;SDS011;8008;50.024;8.172;2022-11-09T13:51:40;2.72;;;1.20;;
15814;SDS011;8008;50.024;8.172;2022-11-09T13:54:32;1.75;;;1.20;;
15814;SDS011;8008;50.024;8.172;2022-11-09T13:57:20;2.67;;;1.33;;
15814;SDS011;8008;50.024;8.172;2022-11-09T14:00:13;2.33;;;1.25;;
15814;SDS011;8008;50.024;8.172;2022-11-09T14:03:14;3.10;;;1.15;;
15814;SDS011;8008;50.024;8.172;2022-11-09T14:06:02;2.42;;;1.10;;
15814;SDS011;8008;50.024;8.172;2022-11-09T14:08:49;2.50;;;1.30;;
15814;SDS011;8008;50.024;8.172;2022-11-09T14:11:45;5.57;;;1.55;;
15814;SDS011;8008;50.024;8.172;2022-11-09T14:18:03;4.68;;;1.00;;
15814;SDS011;8008;50.024;8.172;2022-11-09T14:20:59;4.72;;;1.00;;
15814;SDS011;8008;50.024;8.172;2022-11-09T14:24:00;2.40;;;1.00;;
15814;SDS011;8008;50.024;8.172;2022-11-09T14:27:12;2.90;;;1.13;;
15814;SDS011;8008;50.024;8.172;2022-11-09T14:30:00;3.42;;;1.30;;
15814;SDS011;8008;50.024;8.172;2022-11-09T14:32:47;4.72;;;1.00;;
15814;SDS011;8008;50.024;8.172;2022-11-09T14:35:35;5.03;;;1.80;;
15814;SDS011;8008;50.024;8.172;2022-11-09T14:38:23;4.25;;;1.48;;
15814;SDS011;8008;50.024;8.172;2022-11-09T14:41:17;3.63;;;1.10;;
15814;SDS011;8008;50.024;8.172;2022-11-09T14:44:11;4.05;;;1.30;;
15814;SDS011;8008;50.024;8.172;2022-11-09T14:47:01;2.17;;;1.02;;
15814;SDS011;8008;50.024;8.172;2022-11-09T14:49:49;4.00;;;1.30;;
15814;SDS011;8008;50.024;8.172;2022-11-09T14:52:36;2.53;;;1.23;;
15814;SDS011;8008;50.024;8.172;2022-11-09T14:55:24;1.48;;;1.00;;
15814;SDS011;8008;50.024;8.172;2022-11-09T14:58:11;1.73;;;1.20;;
15814;SDS011;8008;50.024;8.172;2022-11-09T15:01:07;3.92;;;1.25;;
15814;SDS011;8008;50.024;8.172;2022-11-09T15:04:04;3.00;;;1.30;;
15814;SDS011;8008;50.024;8.172;2022-11-09T15:06:53;2.40;;;1.05;;
15814;SDS011;8008;50.024;8.172;2022-11-09T15:09:44;2.67;;;1.30;;
15814;SDS011;8008;50.024;8.172;2022-11-09T15:12:32;2.95;;;1.60;;
15814;SDS011;8008;50.024;8.172;2022-11-09T15:15:20;4.68;;;2.00;;
15814;SDS011;8008;50.024;8.172;2022-11-09T15:18:16;3.15;;;1.70;;
15814;SDS011;8008;50.024;8.172;2022-11-09T15:21:11;3.65;;;1.30;;
15814;SDS011;8008;50.024;8.172;2022-11-09T15:24:03;2.25;;;1.30;;
15814;SDS011;8008;50.024;8.172;2022-11-09T15:26:58;2.45;;;1.35;;
15814;SDS011;8008;50.024;8.172;2022-11-09T15:29:45;3.78;;;1.40;;
15814;SDS011;8008;50.024;8.172;2022-11-09T15:32:32;1.50;;;1.27;;
15814;SDS011;8008;50.024;8.172;2022-11-09T15:35:23;4.55;;;1.67;;
15814;SDS011;8008;50.024;8.172;2022-11-09T15:41:14;9.52;;;4.70;;
15814;SDS011;8008;50.024;8.172;2022-11-09T15:44:02;7.57;;;3.60;;
15814;SDS011;8008;50.024;8.172;2022-11-09T15:46:50;6.95;;;3.83;;
15814;SDS011;8008;50.024;8.172;2022-11-09T15:49:38;3.58;;;2.00;;
15814;SDS011;8008;50.024;8.172;2022-11-09T15:52:26;4.70;;;2.08;;
15814;SDS011;8008;50.024;8.172;2022-11-09T15:55:13;2.65;;;1.60;;
15814;SDS011;8008;50.024;8.172;2022-11-09T15:58:00;4.72;;;3.38;;
15814;SDS011;8008;50.024;8.172;2022-11-09T16:00:47;2.38;;;1.85;;
15814;SDS011;8008;50.024;8.172;2022-11-09T16:03:33;7.57;;;1.60;;
15814;SDS011;8008;50.024;8.172;2022-11-09T16:06:19;2.83;;;1.60;;
15814;SDS011;8008;50.024;8.172;2022-11-09T16:09:08;2.55;;;1.80;;
15814;SDS011;8008;50.024;8.172;2022-11-09T16:11:55;4.50;;;1.80;;
15814;SDS011;8008;50.024;8.172;2022-11-09T16:14:42;2.20;;;1.50;;
15814;SDS011;8008;50.024;8.172;2022-11-09T16:17:28;2.17;;;1.60;;
15814;SDS011;8008;50.024;8.172;2022-11-09T16:20:15;2.40;;;1.50;;
15814;SDS011;8008;50.024;8.172;2022-11-09T16:23:01;3.13;;;1.42;;
15814;SDS011;8008;50.024;8.172;2022-11-09T16:25:50;5.90;;;1.70;;
15814;SDS011;8008;50.024;8.172;2022-11-09T16:28:36;3.33;;;1.92;;
15814;SDS011;8008;50.024;8.172;2022-11-09T16:31:23;4.00;;;1.88;;
15814;SDS011;8008;50.024;8.172;2022-11-09T16:34:29;2.80;;;1.98;;
15814;SDS011;8008;50.024;8.172;2022-11-09T16:37:16;3.63;;;2.10;;
15814;SDS011;8008;50.024;8.172;2022-11-09T16:40:04;3.47;;;2.83;;
15814;SDS011;8008;50.024;8.172;2022-11-09T16:42:54;2.28;;;2.08;;
15814;SDS011;8008;50.024;8.172;2022-11-09T16:45:43;11.15;;;4.25;;
15814;SDS011;8008;50.024;8.172;2022-11-09T16:48:31;4.30;;;2.83;;
15814;SDS011;8008;50.024;8.172;2022-11-09T16:51:18;5.45;;;2.50;;
15814;SDS011;8008;50.024;8.172;2022-11-09T16:54:05;8.73;;;5.35;;
15814;SDS011;8008;50.024;8.172;2022-11-09T16:56:52;9.30;;;3.72;;
15814;SDS011;8008;50.024;8.172;2022-11-09T16:59:40;7.43;;;4.30;;
15814;SDS011;8008;50.024;8.172;2022-11-09T17:02:26;5.60;;;3.10;;
15814;SDS011;8008;50.024;8.172;2022-11-09T17:05:13;4.80;;;2.97;;
15814;SDS011;8008;50.024;8.172;2022-11-09T17:07:59;8.45;;;3.38;;
15814;SDS011;8008;50.024;8.172;2022-11-09T17:10:46;4.13;;;3.33;;
15814;SDS011;8008;50.024;8.172;2022-11-09T17:13:32;24.40;;;16.15;;
15814;SDS011;8008;50.024;8.172;2022-11-09T17:16:20;8.50;;;5.63;;
15814;SDS011;8008;50.024;8.172;2022-11-09T17:19:06;12.50;;;5.00;;
15814;SDS011;8008;50.024;8.172;2022-11-09T17:21:53;6.75;;;4.13;;
15814;SDS011;8008;50.024;8.172;2022-11-09T17:24:39;7.47;;;3.92;;
15814;SDS011;8008;50.024;8.172;2022-11-09T17:27:26;7.55;;;4.18;;
15814;SDS011;8008;50.024;8.172;2022-11-09T17:30:12;14.77;;;6.35;;
15814;SDS011;8008;50.024;8.172;2022-11-09T17:33:00;16.58;;;6.05;;
15814;SDS011;8008;50.024;8.172;2022-11-09T17:35:46;13.77;;;5.57;;
15814;SDS011;8008;50.024;8.172;2022-11-09T17:38:33;8.90;;;5.20;;
15814;SDS011;8008;50.024;8.172;2022-11-09T17:41:19;8.25;;;4.82;;
15814;SDS011;8008;50.024;8.172;2022-11-09T17:44:06;7.22;;;4.18;;
15814;SDS011;8008;50.024;8.172;2022-11-09T17:46:52;12.50;;;5.13;;
15814;SDS011;8008;50.024;8.172;2022-11-09T17:49:40;7.95;;;4.13;;
15814;SDS011;8008;50.024;8.172;2022-11-09T17:52:27;8.10;;;3.78;;
15814;SDS011;8008;50.024;8.172;2022-11-09T17:55:13;7.32;;;3.70;;
15814;SDS011;8008;50.024;8.172;2022-11-09T17:58:00;9.15;;;3.90;;
15814;SDS011;8008;50.024;8.172;2022-11-09T18:00:48;6.95;;;3.78;;
15814;SDS011;8008;50.024;8.172;2022-11-09T18:03:34;6.38;;;3.50;;
15814;SDS011;8008;50.024;8.172;2022-11-09T18:06:23;10.63;;;4.57;;
15814;SDS011;8008;50.024;8.172;2022-11-09T18:09:10;4.18;;;2.30;;
15814;SDS011;8008;50.024;8.172;2022-11-09T18:12:18;6.05;;;3.28;;
15814;SDS011;8008;50.024;8.172;2022-11-09T18:15:05;6.35;;;3.17;;
15814;SDS011;8008;50.024;8.172;2022-11-09T18:17:52;4.97;;;3.13;;
15814;SDS011;8008;50.024;8.172;2022-11-09T18:20:39;7.63;;;4.13;;
15814;SDS011;8008;50.024;8.172;2022-11-09T18:23:26;8.15;;;3.72;;
15814;SDS011;8008;50.024;8.172;2022-11-09T18:26:13;5.55;;;3.40;;
15814;SDS011;8008;50.024;8.172;2022-11-09T18:29:00;5.82;;;3.72;;
15814;SDS011;8008;50.024;8.172;2022-11-09T18:31:46;8.90;;;3.88;;
15814;SDS011;8008;50.024;8.172;2022-11-09T18:34:33;6.00;;;3.08;;
15814;SDS011;8008;50.024;8.172;2022-11-09T18:37:19;8.80;;;3.10;;
15814;SDS011;8008;50.024;8.172;2022-11-09T18:40:07;4.85;;;2.58;;
15814;SDS011;8008;50.024;8.172;2022-11-09T18:42:54;7.00;;;2.72;;
15814;SDS011;8008;50.024;8.172;2022-11-09T18:45:41;6.45;;;2.60;;
15814;SDS011;8008;50.024;8.172;2022-11-09T18:48:27;5.00;;;2.22;;
15814;SDS011;8008;50.024;8.172;2022-11-09T18:51:14;4.80;;;2.47;;
15814;SDS011;8008;50.024;8.172;2022-11-09T18:54:00;6.90;;;2.50;;
15814;SDS011;8008;50.024;8.172;2022-11-09T18:56:48;4.53;;;2.30;;
15814;SDS011;8008;50.024;8.172;2022-11-09T18:59:34;8.63;;;3.08;;
15814;SDS011;8008;50.024;8.172;2022-11-09T19:02:23;6.40;;;2.60;;
15814;SDS011;8008;50.024;8.172;2022-11-09T19:05:10;6.10;;;2.65;;
15814;SDS011;8008;50.024;8.172;2022-11-09T19:07:56;7.32;;;3.53;;
15814;SDS011;8008;50.024;8.172;2022-11-09T19:10:42;7.72;;;3.20;;
15814;SDS011;8008;50.024;8.172;2022-11-09T19:13:30;4.40;;;2.80;;
15814;SDS011;8008;50.024;8.172;2022-11-09T19:16:17;5.68;;;2.70;;
15814;SDS011;8008;50.024;8.172;2022-11-09T19:19:04;8.95;;;4.32;;
15814;SDS011;8008;50.024;8.172;2022-11-09T19:21:51;7.68;;;4.00;;
15814;SDS011;8008;50.024;8.172;2022-11-09T19:24:39;8.23;;;4.07;;
15814;SDS011;8008;50.024;8.172;2022-11-09T19:27:25;8.60;;;3.67;;
15814;SDS011;8008;50.024;8.172;2022-11-09T19:30:14;9.88;;;4.28;;
15814;SDS011;8008;50.024;8.172;2022-11-09T19:33:01;9.93;;;4.10;;
15814;SDS011;8008;50.024;8.172;2022-11-09T19:35:49;11.45;;;5.10;;
15814;SDS011;8008;50.024;8.172;2022-11-09T19:38:56;7.13;;;3.80;;
15814;SDS011;8008;50.024;8.172;2022-11-09T19:41:42;11.10;;;5.68;;
15814;SDS011;8008;50.024;8.172;2022-11-09T19:44:29;13.65;;;5.22;;
15814;SDS011;8008;50.024;8.172;2022-11-09T19:47:17;15.35;;;6.50;;
15814;SDS011;8008;50.024;8.172;2022-11-09T19:50:05;15.23;;;6.78;;
15814;SDS011;8008;50.024;8.172;2022-11-09T19:52:52;18.15;;;7.97;;
15814;SDS011;8008;50.024;8.172;2022-11-09T19:55:39;13.25;;;6.85;;
15814;SDS011;8008;50.024;8.172;2022-11-09T19:58:25;13.18;;;5.88;;
15814;SDS011;8008;50.024;8.172;2022-11-09T20:01:12;9.32;;;4.05;;
15814;SDS011;8008;50.024;8.172;2022-11-09T20:04:00;10.43;;;3.58;;
15814;SDS011;8008;50.024;8.172;2022-11-09T20:06:54;7.38;;;3.28;;
15814;SDS011;8008;50.024;8.172;2022-11-09T20:09:40;7.93;;;4.47;;
15814;SDS011;8008;50.024;8.172;2022-11-09T20:12:27;5.78;;;3.85;;
15814;SDS011;8008;50.024;8.172;2022-11-09T20:15:31;5.05;;;3.50;;
15814;SDS011;8008;50.024;8.172;2022-11-09T20:18:17;8.88;;;3.80;;
15814;SDS011;8008;50.024;8.172;2022-11-09T20:21:09;10.25;;;4.72;;
15814;SDS011;8008;50.024;8.172;2022-11-09T20:23:56;9.95;;;4.57;;
15814;SDS011;8008;50.024;8.172;2022-11-09T20:26:43;9.85;;;5.85;;
15814;SDS011;8008;50.024;8.172;2022-11-09T20:29:29;8.32;;;4.32;;
15814;SDS011;8008;50.024;8.172;2022-11-09T20:32:15;7.90;;;3.40;;
15814;SDS011;8008;50.024;8.172;2022-11-09T20:35:05;6.95;;;3.45;;
15814;SDS011;8008;50.024;8.172;2022-11-09T20:37:54;7.32;;;3.50;;
15814;SDS011;8008;50.024;8.172;2022-11-09T20:40:42;6.53;;;3.55;;
15814;SDS011;8008;50.024;8.172;2022-11-09T20:43:28;6.85;;;3.80;;